<?xml version="1.0" encoding="UTF-8" standalone="yes"?>
<gpx xmlns="http://www.topografix.com/GPX/1/1" xmlns:gpxtrx="http://www.garmin.com/xmlschemas/GpxExtensions/v3" xmlns:rcxx="http://www.routeconverter.de/xmlschemas/RouteCatalogExtensions/1.0" xmlns:xsi="http://www.w3.org/2001/XMLSchema-instance" xmlns:gpxtpx="http://www.garmin.com/xmlschemas/TrackPointExtension/v1" xmlns:gpxx="http://www.garmin.com/xmlschemas/WaypointExtension/v1" xmlns:nmea="http://trekbuddy.net/2009/01/gpx/nmea" creator="Generated by Christian Pesch's RouteConverter. See http://www.routeconverter.com" version="1.1">
    <trk>
        <name>W000 to W076</name>
        <trkseg>
            <trkpt lon="6.949" lat="49.609888889">
                <ele>373.86000023999185</ele>
                <time>2007-04-13T18:34:57.000Z</time>
                <name>W000</name>
            </trkpt>
            <trkpt lon="6.9485" lat="49.609666667">
                <ele>370.61999928000273</ele>
                <time>2007-04-13T18:35:02.000Z</time>
                <name>W001</name>
            </trkpt>
            <trkpt lon="6.948194444" lat="49.609166667">
                <ele>371.33333153334644</ele>
                <time>2007-04-13T18:35:06.000Z</time>
                <name>W002</name>
            </trkpt>
            <trkpt lon="6.947555556" lat="49.609111111">
                <ele>370.83777888890336</ele>
                <time>2007-04-13T18:35:13.000Z</time>
                <name>W003</name>
            </trkpt>
            <trkpt lon="6.945666667" lat="49.6085">
                <ele>367.100000400001</ele>
                <time>2007-04-13T18:35:16.000Z</time>
                <name>W004</name>
            </trkpt>
            <trkpt lon="6.942583333" lat="49.605972222">
                <ele>366.3166658266739</ele>
                <time>2007-04-13T18:35:19.000Z</time>
                <name>W005</name>
            </trkpt>
            <trkpt lon="6.941666667" lat="49.604277778">
                <ele>366.9666665600161</ele>
                <time>2007-04-13T18:35:25.000Z</time>
                <name>W006</name>
            </trkpt>
            <trkpt lon="6.939611111" lat="49.603722222">
                <ele>359.9844453155447</ele>
                <time>2007-04-13T18:35:32.000Z</time>
                <name>W007</name>
            </trkpt>
            <trkpt lon="6.939111111" lat="49.602666667">
                <ele>364.8466635199917</ele>
                <time>2007-04-13T18:35:36.000Z</time>
                <name>W008</name>
            </trkpt>
            <trkpt lon="6.938444444" lat="49.602166667">
                <ele>364.36665760001716</ele>
                <time>2007-04-13T18:35:51.000Z</time>
                <name>W009</name>
            </trkpt>
            <trkpt lon="6.938333333" lat="49.60175">
                <ele>369.2999962399617</ele>
                <time>2007-04-13T18:35:54.000Z</time>
                <name>W010</name>
            </trkpt>
            <trkpt lon="6.938555556" lat="49.600972222">
                <ele>371.6888892977803</ele>
                <time>2007-04-13T18:35:56.000Z</time>
                <name>W011</name>
            </trkpt>
            <trkpt lon="6.936916667" lat="49.598638889">
                <ele>364.93333480000035</ele>
                <time>2007-04-13T18:36:00.000Z</time>
                <name>W012</name>
            </trkpt>
            <trkpt lon="6.938611111" lat="49.5965">
                <ele>382.4999995199985</ele>
                <time>2007-04-13T18:36:05.000Z</time>
                <name>W013</name>
            </trkpt>
            <trkpt lon="6.938611111" lat="49.595861111">
                <ele>381.2222217244405</ele>
                <time>2007-04-13T18:36:09.000Z</time>
                <name>W014</name>
            </trkpt>
            <trkpt lon="6.944527778" lat="49.59325">
                <ele>416.3433349600091</ele>
                <time>2007-04-13T18:36:23.000Z</time>
                <name>W015</name>
            </trkpt>
            <trkpt lon="6.944305556" lat="49.592222222">
                <ele>416.8333366666663</ele>
                <time>2007-04-13T18:36:32.000Z</time>
                <name>W016</name>
            </trkpt>
            <trkpt lon="6.945027778" lat="49.590333333">
                <ele>410.58666903998477</ele>
                <time>2007-04-13T18:36:36.000Z</time>
                <name>W017</name>
            </trkpt>
            <trkpt lon="6.945027778" lat="49.587194444">
                <ele>420.245559937788</ele>
                <time>2007-04-13T18:36:40.000Z</time>
                <name>W018</name>
            </trkpt>
            <trkpt lon="6.946944444" lat="49.586472222">
                <ele>439.79999797332397</ele>
                <time>2007-04-13T18:36:45.000Z</time>
                <name>W019</name>
            </trkpt>
            <trkpt lon="6.947722222" lat="49.586638889">
                <ele>443.453332666667</ele>
                <time>2007-04-13T18:37:11.000Z</time>
                <name>W020</name>
            </trkpt>
            <trkpt lon="6.949027778" lat="49.58775">
                <ele>453.6333342399984</ele>
                <time>2007-04-13T18:37:14.000Z</time>
                <name>W021</name>
            </trkpt>
            <trkpt lon="6.955138889" lat="49.591194444">
                <ele>503.3944426088996</ele>
                <time>2007-04-13T18:37:40.000Z</time>
                <name>W022</name>
            </trkpt>
            <trkpt lon="6.956111111" lat="49.591111111">
                <ele>499.3888893777698</ele>
                <time>2007-04-13T18:37:43.000Z</time>
                <name>W023</name>
            </trkpt>
            <trkpt lon="6.956444444" lat="49.591611111">
                <ele>498.0155585511119</ele>
                <time>2007-04-13T18:37:46.000Z</time>
                <name>W024</name>
            </trkpt>
            <trkpt lon="6.957694444" lat="49.591861111">
                <ele>486.5788933111076</ele>
                <time>2007-04-13T18:37:49.000Z</time>
                <name>W025</name>
            </trkpt>
            <trkpt lon="6.960083333" lat="49.590805556">
                <ele>468.1399985333399</ele>
                <time>2007-04-13T18:37:53.000Z</time>
                <name>W026</name>
            </trkpt>
            <trkpt lon="6.961805556" lat="49.590583333">
                <ele>460.0666698400343</ele>
                <time>2007-04-13T18:38:05.000Z</time>
                <name>W027</name>
            </trkpt>
            <trkpt lon="6.962972222" lat="49.589138889">
                <ele>474.2811119955833</ele>
                <time>2007-04-13T18:38:08.000Z</time>
                <name>W028</name>
            </trkpt>
            <trkpt lon="6.968055556" lat="49.586638889">
                <ele>454.26665874666236</ele>
                <time>2007-04-13T18:38:19.000Z</time>
                <name>W029</name>
            </trkpt>
            <trkpt lon="6.968" lat="49.585916667">
                <ele>457.97999872000355</ele>
                <time>2007-04-13T18:38:22.000Z</time>
                <name>W030</name>
            </trkpt>
            <trkpt lon="6.968472222" lat="49.5845">
                <ele>442.63333759998875</ele>
                <time>2007-04-13T18:38:26.000Z</time>
                <name>W031</name>
            </trkpt>
            <trkpt lon="6.9685" lat="49.582277778">
                <ele>429.74000175998714</ele>
                <time>2007-04-13T18:38:30.000Z</time>
                <name>W032</name>
            </trkpt>
            <trkpt lon="6.967444444" lat="49.581638889">
                <ele>428.5022262310758</ele>
                <time>2007-04-13T18:38:35.000Z</time>
                <name>W033</name>
            </trkpt>
            <trkpt lon="6.968861111" lat="49.580694444">
                <ele>409.1833291866887</ele>
                <time>2007-04-13T18:38:59.000Z</time>
                <name>W034</name>
            </trkpt>
            <trkpt lon="6.969111111" lat="49.580027778">
                <ele>401.9933360666824</ele>
                <time>2007-04-13T18:39:01.000Z</time>
                <name>W035</name>
            </trkpt>
            <trkpt lon="6.972361111" lat="49.579277778">
                <ele>380.75556063107564</ele>
                <time>2007-04-13T18:39:04.000Z</time>
                <name>W036</name>
            </trkpt>
            <trkpt lon="6.97625" lat="49.578888889">
                <ele>355.3333335999942</ele>
                <time>2007-04-13T18:39:18.000Z</time>
                <name>W038</name>
            </trkpt>
            <trkpt lon="6.975527778" lat="49.579666667">
                <ele>359.25333032000475</ele>
                <time>2007-04-13T18:39:23.000Z</time>
                <name>W039</name>
            </trkpt>
            <trkpt lon="6.97475" lat="49.582722222">
                <ele>365.52000007999834</ele>
                <time>2007-04-13T18:39:27.000Z</time>
                <name>W040</name>
            </trkpt>
            <trkpt lon="6.974111111" lat="49.583472222">
                <ele>369.8333345466692</ele>
                <time>2007-04-13T18:43:27.000Z</time>
                <name>W041</name>
            </trkpt>
            <trkpt lon="6.973305556" lat="49.586277778">
                <ele>373.1244351821949</ele>
                <time>2007-04-13T18:43:29.000Z</time>
                <name>W042</name>
            </trkpt>
            <trkpt lon="6.971277778" lat="49.586611111">
                <ele>398.0911084888521</ele>
                <time>2007-04-13T18:43:34.000Z</time>
                <name>W043</name>
            </trkpt>
            <trkpt lon="6.971416667" lat="49.587444444">
                <ele>397.42665853333835</ele>
                <time>2007-04-13T18:43:39.000Z</time>
                <name>W044</name>
            </trkpt>
            <trkpt lon="6.970722222" lat="49.588777778">
                <ele>396.4644414222024</ele>
                <time>2007-04-13T18:43:41.000Z</time>
                <name>W045</name>
            </trkpt>
            <trkpt lon="6.969083333" lat="49.589944444">
                <ele>391.8133418933795</ele>
                <time>2007-04-13T18:43:43.000Z</time>
                <name>W046</name>
            </trkpt>
            <trkpt lon="6.967305556" lat="49.591222222">
                <ele>404.1155484444321</ele>
                <time>2007-04-13T18:44:12.000Z</time>
                <name>W047</name>
            </trkpt>
            <trkpt lon="6.967277778" lat="49.5935">
                <ele>408.273331359996</ele>
                <time>2007-04-13T18:44:37.000Z</time>
                <name>W048</name>
            </trkpt>
            <trkpt lon="6.96825" lat="49.59375">
                <ele>400.29999999999745</ele>
                <time>2007-04-13T18:44:51.000Z</time>
                <name>W049</name>
            </trkpt>
            <trkpt lon="6.968305556" lat="49.592444444">
                <ele>394.6733258133413</ele>
                <time>2007-04-13T18:44:53.000Z</time>
                <name>W050</name>
            </trkpt>
            <trkpt lon="6.969138889" lat="49.591777778">
                <ele>383.7799989066682</ele>
                <time>2007-04-13T18:44:55.000Z</time>
                <name>W051</name>
            </trkpt>
            <trkpt lon="6.97125" lat="49.592222222">
                <ele>376.3333336000019</ele>
                <time>2007-04-13T18:44:59.000Z</time>
                <name>W052</name>
            </trkpt>
            <trkpt lon="6.971416667" lat="49.592722222">
                <ele>373.26666520000913</ele>
                <time>2007-04-13T18:45:02.000Z</time>
                <name>W053</name>
            </trkpt>
            <trkpt lon="6.970722222" lat="49.595416667">
                <ele>371.70000229333317</ele>
                <time>2007-04-13T18:45:04.000Z</time>
                <name>W054</name>
            </trkpt>
            <trkpt lon="6.970527778" lat="49.596972222">
                <ele>372.5633328533333</ele>
                <time>2007-04-13T18:45:27.000Z</time>
                <name>W055</name>
            </trkpt>
            <trkpt lon="6.970638889" lat="49.597722222">
                <ele>373.2999992000056</ele>
                <time>2007-04-13T18:45:31.000Z</time>
                <name>W056</name>
            </trkpt>
            <trkpt lon="6.970333333" lat="49.598083333">
                <ele>374.5999987999933</ele>
                <time>2007-04-13T18:45:33.000Z</time>
                <name>W057</name>
            </trkpt>
            <trkpt lon="6.970777778" lat="49.598888889">
                <ele>378.9666668266733</ele>
                <time>2007-04-13T18:45:36.000Z</time>
                <name>W058</name>
            </trkpt>
            <trkpt lon="6.970722222" lat="49.600527778">
                <ele>382.3311147022221</ele>
                <time>2007-04-13T18:45:38.000Z</time>
                <name>W059</name>
            </trkpt>
            <trkpt lon="6.970972222" lat="49.601305556">
                <ele>384.6500036533311</ele>
                <time>2007-04-13T18:46:14.000Z</time>
                <name>W060</name>
            </trkpt>
            <trkpt lon="6.971972222" lat="49.601305556">
                <ele>379.7022215111113</ele>
                <time>2007-04-13T18:46:16.000Z</time>
                <name>W061</name>
            </trkpt>
            <trkpt lon="6.97325" lat="49.60375">
                <ele>387.59999999999985</ele>
                <time>2007-04-13T18:46:26.000Z</time>
                <name>W062</name>
            </trkpt>
            <trkpt lon="6.971694444" lat="49.60425">
                <ele>391.96666879999987</ele>
                <time>2007-04-13T18:46:29.000Z</time>
                <name>W063</name>
            </trkpt>
            <trkpt lon="6.971638889" lat="49.604833333">
                <ele>389.4466676399903</ele>
                <time>2007-04-13T18:46:40.000Z</time>
                <name>W064</name>
            </trkpt>
            <trkpt lon="6.970444444" lat="49.605">
                <ele>393.96666720001116</ele>
                <time>2007-04-13T18:46:42.000Z</time>
                <name>W065</name>
            </trkpt>
            <trkpt lon="6.970138889" lat="49.605305556">
                <ele>396.28889169776176</ele>
                <time>2007-04-13T18:46:45.000Z</time>
                <name>W066</name>
            </trkpt>
            <trkpt lon="6.970916667" lat="49.605972222">
                <ele>399.11666670667876</ele>
                <time>2007-04-13T18:46:49.000Z</time>
                <name>W067</name>
            </trkpt>
            <trkpt lon="6.969805556" lat="49.606444444">
                <ele>399.5133317866693</ele>
                <time>2007-04-13T18:46:54.000Z</time>
                <name>W068</name>
            </trkpt>
            <trkpt lon="6.963638889" lat="49.608166667">
                <ele>435.15333397333114</ele>
                <time>2007-04-13T18:47:20.000Z</time>
                <name>W069</name>
            </trkpt>
            <trkpt lon="6.962055556" lat="49.608972222">
                <ele>432.9155569244406</ele>
                <time>2007-04-13T18:47:29.000Z</time>
                <name>W070</name>
            </trkpt>
            <trkpt lon="6.961416667" lat="49.610055556">
                <ele>430.6466738666539</ele>
                <time>2007-04-13T18:47:32.000Z</time>
                <name>W071</name>
            </trkpt>
            <trkpt lon="6.960027778" lat="49.610222222">
                <ele>425.67777755554044</ele>
                <time>2007-04-13T18:47:47.000Z</time>
                <name>W072</name>
            </trkpt>
            <trkpt lon="6.956444444" lat="49.609305556">
                <ele>393.48889255113295</ele>
                <time>2007-04-13T18:47:49.000Z</time>
                <name>W073</name>
            </trkpt>
            <trkpt lon="6.955166667" lat="49.608611111">
                <ele>389.9000001600113</ele>
                <time>2007-04-13T18:47:52.000Z</time>
                <name>W074</name>
            </trkpt>
            <trkpt lon="6.951083333" lat="49.609138889">
                <ele>381.28999925333346</ele>
                <time>2007-04-13T18:47:55.000Z</time>
                <name>W075</name>
            </trkpt>
            <trkpt lon="6.949138889" lat="49.609916667">
                <ele>374.98666864000313</ele>
                <time>2007-04-13T18:47:59.000Z</time>
                <name>W076</name>
            </trkpt>
        </trkseg>
    </trk>
</gpx>
